KB1MIM Weather Reports


time (UTC)temp
F
wind
direction
speed
knots
gust
knots
rain 1hr
in
rain 24hr
in
rain mn
in
humidity
%
barometer
mb
20220627201530 77 234 0.0 1.7 0.00 0.47 0.47 66 1011.4
20220627200028 77 128 0.0 1.7 0.00 0.47 0.47 77 1011.3
20220627194527 76 46 0.0 1.7 0.00 0.47 0.47 75 1011.3
20220627193033 76 39 0.0 0.9 0.00 0.47 0.47 85 1011.5
20220627191534 75 215 0.0 0.0 0.00 0.47 0.47 87 1011.3
20220627190022 75 215 0.0 0.9 0.00 0.47 0.47 90 1011.4
20220627184522 74 81 0.0 0.0 0.00 0.47 0.47 92 1011.5
20220627183019 74 81 0.0 0.0 0.01 0.47 0.47 93 1011.6
20220627181517 74 81 0.0 0.9 0.04 0.47 0.47 94 1011.6
20220627180015 73 81 0.0 0.9 0.04 0.47 0.47 96 1011.5
20220627174512 72 108 0.0 0.0 0.18 0.47 0.47 95 1011.6
20220627173012 72 44 0.0 0.9 0.36 0.46 0.46 95 1011.8
20220627171520 71 44 0.0 0.0 0.35 0.43 0.43 95 1011.8
20220627170010 71 44 0.0 0.9 0.36 0.43 0.43 94 1011.7
20220627164517 72 77 0.0 0.0 0.21 0.28 0.28 95 1012.0
20220627163008 72 78 0.0 0.0 0.01 0.08 0.08 94 1011.9
20220627161512 72 88 0.0 0.0 0.01 0.08 0.08 94 1011.7
20220627160010 72 100 0.0 0.0 0.00 0.07 0.07 94 1011.7
20220627154502 72 101 0.0 0.9 0.02 0.07 0.07 94 1011.5
20220627153004 72 89 0.0 0.9 0.04 0.07 0.07 94 1011.4
20220627151501 71 108 0.0 0.9 0.07 0.07 0.07 94 1011.4
20220627150002 71 106 0.0 2.6 0.07 0.07 0.07 94 1011.4
20220627144602 71 138 0.0 0.0 0.06 0.06 0.06 92 1011.2
20220627143101 72 84 0.0 1.7 0.03 0.03 0.03 89 1011.3
20220627141557 72 89 0.0 0.9 0.00 0.00 0.00 87 1011.1
20220627140105 72 110 0.0 1.7 0.00 0.00 0.00 87 1011.2
20220627134557 72 158 0.0 0.9 0.00 0.00 0.00 88 1011.3
20220627133056 71 198 0.0 0.9 0.00 0.00 0.00 89 1011.5
20220627131606 71 110 0.0 0.9 0.00 0.00 0.00 89 1011.5
20220627130054 71 214 0.0 3.5 0.00 0.00 0.00 88 1011.5
20220627124554 71 84 0.0 5.2 0.00 0.00 0.00 87 1011.3
20220627123052 71 91 0.0 4.3 0.00 0.00 0.00 84 1011.4
20220627121551 72 92 0.0 1.7 0.00 0.00 0.00 83 1011.3
20220627120051 72 68 0.0 2.6 0.00 0.00 0.00 82 1011.3
20220627114557 71 79 0.0 2.6 0.00 0.00 0.00 82 1011.2
20220627113105 71 88 0.0 2.6 0.00 0.00 0.00 82 1011.2
20220627111548 70 129 0.0 1.7 0.00 0.00 0.00 82 1011.3
20220627110049 70 77 0.0 1.7 0.00 0.00 0.00 82 1011.3
20220627104548 70 238 0.0 2.6 0.00 0.00 0.00 82 1011.4
20220627103047 70 79 0.0 2.6 0.00 0.00 0.00 82 1011.4
20220627101548 70 203 0.0 2.6 0.00 0.00 0.00 81 1011.5
20220627100046 70 101 0.0 1.7 0.00 0.00 0.00 81 1011.5
20220627094543 70 122 0.0 0.9 0.00 0.00 0.00 81 1011.7
20220627093039 69 203 0.0 0.9 0.00 0.00 0.00 81 1011.8
20220627091538 69 139 0.0 0.9 0.00 0.00 0.00 80 1012.0
20220627090037 69 91 0.0 0.0 0.00 0.00 0.00 80 1012.0
20220627084536 69 102 0.0 0.9 0.00 0.00 0.00 79 1012.1
20220627083033 69 126 0.0 0.9 0.00 0.00 0.00 79 1012.4
20220627081533 69 223 0.0 1.7 0.00 0.00 0.00 78 1012.4
20220627080038 69 171 0.0 0.9 0.00 0.00 0.00 77 1012.6
20220627074529 70 126 0.0 2.6 0.00 0.00 0.00 75 1012.7
20220627073027 70 113 0.0 1.7 0.00 0.00 0.00 75 1012.8
20220627071529 69 71 0.0 2.6 0.00 0.00 0.00 75 1013.0
20220627070023 70 125 0.0 0.9 0.00 0.00 0.00 74 1013.3
20220627064522 70 190 0.0 4.3 0.00 0.00 0.00 74 1013.4
20220627063019 70 120 0.0 0.9 0.00 0.00 0.00 74 1013.5
20220627061517 70 98 0.0 0.9 0.00 0.00 0.00 72 1013.8
20220627060019 71 125 0.0 0.0 0.00 0.00 0.00 71 1013.9
20220627054514 71 96 0.0 1.7 0.00 0.00 0.00 70 1014.1
20220627053013 71 105 0.0 0.0 0.00 0.00 0.00 70 1014.0
20220627051512 71 104 0.0 0.9 0.00 0.00 0.00 70 1014.1
20220627050010 71 108 0.0 0.9 0.00 0.00 0.00 68 1014.0
20220627044508 72 51 0.0 1.7 0.00 0.00 0.00 66 1014.0
20220627043011 72 123 0.0 1.7 0.00 0.00 0.00 65 1014.2
20220627041502 73 115 0.0 0.9 0.00 0.00 0.00 63 1014.3
20220627040059 73 149 0.0 1.7 0.00 0.00 0.00 62 1014.3
20220627034558 74 205 0.0 1.7 0.00 0.00 0.00 61 1014.6
20220627033057 74 128 0.0 1.7 0.00 0.00 0.00 60 1014.7
20220627031557 75 79 0.0 1.7 0.00 0.00 0.00 59 1014.8
20220627030056 75 168 0.0 3.5 0.00 0.00 0.00 58 1014.8
20220627024557 76 165 0.0 2.6 0.00 0.00 0.00 59 1014.8
20220627023055 76 224 0.0 3.5 0.00 0.00 0.00 59 1014.8
20220627021553 77 64 0.0 3.5 0.00 0.00 0.00 59 1015.0
20220627020104 77 203 0.0 3.5 0.00 0.00 0.00 59 1014.9
20220627014552 78 193 0.0 3.5 0.00 0.00 0.00 60 1014.8
20220627013053 78 134 0.0 4.3 0.00 0.00 0.00 62 1014.6
20220627011602 79 78 0.0 2.6 0.00 0.00 0.00 63 1014.5
20220627010052 80 63 0.0 2.6 0.00 0.00 0.00 62 1014.3
20220627004551 80 222 0.0 5.2 0.00 0.00 0.00 61 1014.1
20220627003050 81 197 0.0 3.5 0.00 0.00 0.00 59 1014.2
20220627001549 82 138 0.0 3.5 0.00 0.00 0.00 58 1014.1
20220627000049 82 104 0.0 3.5 0.00 0.00 0.00 57 1014.0
20220626234551 83 218 0.0 4.3 0.00 0.00 0.00 57 1013.9
20220626233047 84 142 0.0 4.3 0.00 0.00 0.00 56 1014.0
20220626231547 85 208 0.9 4.3 0.00 0.00 0.00 55 1013.8
20220626230047 86 210 0.0 6.1 0.00 0.00 0.00 54 1013.5
20220626224547 87 226 0.0 2.6 0.00 0.00 0.00 55 1013.5
20220626223102 88 142 0.0 2.6 0.00 0.00 0.00 53 1013.3
20220626221545 89 140 0.0 2.6 0.00 0.00 0.00 51 1013.1
20220626220044 90 174 0.0 3.5 0.00 0.00 0.00 48 1013.2
20220626214543 91 145 0.0 5.2 0.00 0.00 0.00 47 1013.4
20220626213042 91 146 0.0 2.6 0.00 0.00 0.00 44 1013.3
20220626211541 91 113 0.0 2.6 0.00 0.00 0.00 46 1013.5
20220626210049 90 197 0.0 5.2 0.00 0.00 0.00 46 1013.6
20220626204539 91 71 0.9 3.5 0.00 0.00 0.00 43 1013.7
20220626203039 91 122 0.9 4.3 0.00 0.00 0.00 42 1013.9